sensor_id;sensor_type;location;lat;lon;timestamp;temperature;humidity
46898;DHT22;32646;50.958;6.258;2022-12-18T00:01:35;-7.00;99.90
46898;DHT22;32646;50.958;6.258;2022-12-18T00:04:05;-7.00;99.90
46898;DHT22;32646;50.958;6.258;2022-12-18T00:06:34;-7.00;99.90
46898;DHT22;32646;50.958;6.258;2022-12-18T00:09:02;-7.10;99.90
46898;DHT22;32646;50.958;6.258;2022-12-18T00:11:30;-7.10;99.90
46898;DHT22;32646;50.958;6.258;2022-12-18T00:13:58;-7.10;99.90
46898;DHT22;32646;50.958;6.258;2022-12-18T00:16:26;-7.20;99.90
46898;DHT22;32646;50.958;6.258;2022-12-18T00:18:55;-7.20;99.90
46898;DHT22;32646;50.958;6.258;2022-12-18T00:21:22;-7.20;99.90
46898;DHT22;32646;50.958;6.258;2022-12-18T00:23:50;-7.20;99.90
46898;DHT22;32646;50.958;6.258;2022-12-18T00:26:19;-7.20;99.90
46898;DHT22;32646;50.958;6.258;2022-12-18T00:28:46;-7.20;99.90
46898;DHT22;32646;50.958;6.258;2022-12-18T00:31:17;-7.30;99.90
46898;DHT22;32646;50.958;6.258;2022-12-18T00:33:43;-7.40;99.90
46898;DHT22;32646;50.958;6.258;2022-12-18T00:36:16;-7.40;99.90
46898;DHT22;32646;50.958;6.258;2022-12-18T00:38:43;-7.40;99.90
46898;DHT22;32646;50.958;6.258;2022-12-18T00:41:11;-7.50;99.90
46898;DHT22;32646;50.958;6.258;2022-12-18T00:43:39;-7.50;99.90
46898;DHT22;32646;50.958;6.258;2022-12-18T00:46:06;-7.50;99.90
46898;DHT22;32646;50.958;6.258;2022-12-18T00:48:33;-7.50;99.90
46898;DHT22;32646;50.958;6.258;2022-12-18T00:51:00;-7.40;99.90
46898;DHT22;32646;50.958;6.258;2022-12-18T00:53:26;-7.30;99.90
46898;DHT22;32646;50.958;6.258;2022-12-18T00:55:53;-7.30;99.90
46898;DHT22;32646;50.958;6.258;2022-12-18T00:58:36;-7.20;99.90
46898;DHT22;32646;50.958;6.258;2022-12-18T01:01:04;-7.20;99.90
46898;DHT22;32646;50.958;6.258;2022-12-18T01:03:31;-7.20;99.90
46898;DHT22;32646;50.958;6.258;2022-12-18T01:05:57;-7.30;99.90
46898;DHT22;32646;50.958;6.258;2022-12-18T01:08:24;-7.30;99.90
46898;DHT22;32646;50.958;6.258;2022-12-18T01:10:51;-7.30;99.90
46898;DHT22;32646;50.958;6.258;2022-12-18T01:13:17;-7.30;99.90
46898;DHT22;32646;50.958;6.258;2022-12-18T01:15:50;-7.30;99.90
46898;DHT22;32646;50.958;6.258;2022-12-18T01:18:17;-7.30;99.90
46898;DHT22;32646;50.958;6.258;2022-12-18T01:20:43;-7.40;99.90
46898;DHT22;32646;50.958;6.258;2022-12-18T01:23:10;-7.40;99.90
46898;DHT22;32646;50.958;6.258;2022-12-18T01:25:37;-7.50;99.90
46898;DHT22;32646;50.958;6.258;2022-12-18T01:28:04;-7.50;99.90
46898;DHT22;32646;50.958;6.258;2022-12-18T01:30:31;-7.50;99.90
46898;DHT22;32646;50.958;6.258;2022-12-18T01:32:57;-7.40;99.90
46898;DHT22;32646;50.958;6.258;2022-12-18T01:35:24;-7.40;99.90
46898;DHT22;32646;50.958;6.258;2022-12-18T01:37:54;-7.40;99.90
46898;DHT22;32646;50.958;6.258;2022-12-18T01:40:21;-7.40;99.90
46898;DHT22;32646;50.958;6.258;2022-12-18T01:42:57;-7.30;99.90
46898;DHT22;32646;50.958;6.258;2022-12-18T01:45:29;-7.40;99.90
46898;DHT22;32646;50.958;6.258;2022-12-18T01:48:01;-7.30;99.90
46898;DHT22;32646;50.958;6.258;2022-12-18T01:50:40;-7.20;99.90
46898;DHT22;32646;50.958;6.258;2022-12-18T01:53:12;-7.00;99.90
46898;DHT22;32646;50.958;6.258;2022-12-18T01:55:45;-7.00;99.90
46898;DHT22;32646;50.958;6.258;2022-12-18T01:58:13;-7.00;99.90
46898;DHT22;32646;50.958;6.258;2022-12-18T02:00:40;-7.00;99.90
46898;DHT22;32646;50.958;6.258;2022-12-18T02:03:06;-6.90;99.90
46898;DHT22;32646;50.958;6.258;2022-12-18T02:05:44;-6.80;99.90
46898;DHT22;32646;50.958;6.258;2022-12-18T02:08:32;-6.80;99.90
46898;DHT22;32646;50.958;6.258;2022-12-18T02:11:14;-6.70;99.90
46898;DHT22;32646;50.958;6.258;2022-12-18T02:22:12;-6.80;99.90
46898;DHT22;32646;50.958;6.258;2022-12-18T02:27:44;-6.80;99.90
46898;DHT22;32646;50.958;6.258;2022-12-18T02:30:12;-6.80;99.90
46898;DHT22;32646;50.958;6.258;2022-12-18T02:32:43;-6.80;99.90
46898;DHT22;32646;50.958;6.258;2022-12-18T02:35:16;-6.80;99.90
46898;DHT22;32646;50.958;6.258;2022-12-18T02:37:46;-6.80;99.90
46898;DHT22;32646;50.958;6.258;2022-12-18T02:40:14;-6.80;99.90
46898;DHT22;32646;50.958;6.258;2022-12-18T02:42:41;-6.80;99.90
46898;DHT22;32646;50.958;6.258;2022-12-18T02:45:08;-6.80;99.90
46898;DHT22;32646;50.958;6.258;2022-12-18T02:47:41;-6.70;99.90
46898;DHT22;32646;50.958;6.258;2022-12-18T02:50:42;-6.70;99.90
46898;DHT22;32646;50.958;6.258;2022-12-18T02:58:56;-6.70;99.90
46898;DHT22;32646;50.958;6.258;2022-12-18T03:01:43;-6.80;99.90
46898;DHT22;32646;50.958;6.258;2022-12-18T03:04:20;-6.80;99.90
46898;DHT22;32646;50.958;6.258;2022-12-18T03:06:54;-6.80;99.90
46898;DHT22;32646;50.958;6.258;2022-12-18T03:09:27;-6.90;99.90
46898;DHT22;32646;50.958;6.258;2022-12-18T03:12:01;-6.80;99.90
46898;DHT22;32646;50.958;6.258;2022-12-18T03:14:30;-6.90;99.90
46898;DHT22;32646;50.958;6.258;2022-12-18T03:17:03;-6.90;99.90
46898;DHT22;32646;50.958;6.258;2022-12-18T03:19:33;-7.00;99.90
46898;DHT22;32646;50.958;6.258;2022-12-18T03:22:02;-7.00;99.90
46898;DHT22;32646;50.958;6.258;2022-12-18T03:24:31;-7.10;99.90
46898;DHT22;32646;50.958;6.258;2022-12-18T03:27:03;-7.20;99.90
46898;DHT22;32646;50.958;6.258;2022-12-18T03:29:48;-7.20;99.90
46898;DHT22;32646;50.958;6.258;2022-12-18T03:32:30;-7.20;99.90
46898;DHT22;32646;50.958;6.258;2022-12-18T03:35:01;-7.10;99.90
46898;DHT22;32646;50.958;6.258;2022-12-18T03:37:29;-7.10;99.90
46898;DHT22;32646;50.958;6.258;2022-12-18T03:39:55;-7.00;99.90
46898;DHT22;32646;50.958;6.258;2022-12-18T03:50:22;-7.10;99.90
46898;DHT22;32646;50.958;6.258;2022-12-18T03:53:25;-7.10;99.90
46898;DHT22;32646;50.958;6.258;2022-12-18T03:55:55;-7.20;99.90
46898;DHT22;32646;50.958;6.258;2022-12-18T03:58:24;-7.20;99.90
46898;DHT22;32646;50.958;6.258;2022-12-18T04:00:53;-7.20;99.90
46898;DHT22;32646;50.958;6.258;2022-12-18T04:03:21;-7.20;99.90
46898;DHT22;32646;50.958;6.258;2022-12-18T04:05:54;-7.10;99.90
46898;DHT22;32646;50.958;6.258;2022-12-18T04:08:22;-7.10;99.90
46898;DHT22;32646;50.958;6.258;2022-12-18T04:10:50;-7.00;99.90
46898;DHT22;32646;50.958;6.258;2022-12-18T04:13:24;-7.00;99.90
46898;DHT22;32646;50.958;6.258;2022-12-18T04:15:51;-6.90;99.90
46898;DHT22;32646;50.958;6.258;2022-12-18T04:18:18;-6.80;99.90
46898;DHT22;32646;50.958;6.258;2022-12-18T04:20:44;-6.80;99.90
46898;DHT22;32646;50.958;6.258;2022-12-18T04:23:11;-6.80;99.90
46898;DHT22;32646;50.958;6.258;2022-12-18T04:25:37;-6.90;99.90
46898;DHT22;32646;50.958;6.258;2022-12-18T04:28:04;-6.80;99.90
46898;DHT22;32646;50.958;6.258;2022-12-18T04:30:31;-6.80;99.90
46898;DHT22;32646;50.958;6.258;2022-12-18T04:32:57;-6.80;99.90
46898;DHT22;32646;50.958;6.258;2022-12-18T04:35:24;-6.80;99.90
46898;DHT22;32646;50.958;6.258;2022-12-18T04:37:50;-6.90;99.90
46898;DHT22;32646;50.958;6.258;2022-12-18T04:40:17;-6.90;99.90
46898;DHT22;32646;50.958;6.258;2022-12-18T04:42:43;-6.90;99.90
46898;DHT22;32646;50.958;6.258;2022-12-18T04:45:10;-6.90;99.90
46898;DHT22;32646;50.958;6.258;2022-12-18T04:47:37;-7.00;99.90
46898;DHT22;32646;50.958;6.258;2022-12-18T04:50:04;-6.90;99.90
46898;DHT22;32646;50.958;6.258;2022-12-18T04:52:30;-6.80;99.90
46898;DHT22;32646;50.958;6.258;2022-12-18T04:54:57;-6.70;99.90
46898;DHT22;32646;50.958;6.258;2022-12-18T04:57:23;-6.70;99.90
46898;DHT22;32646;50.958;6.258;2022-12-18T04:59:50;-6.80;99.90
46898;DHT22;32646;50.958;6.258;2022-12-18T05:02:17;-6.70;99.90
46898;DHT22;32646;50.958;6.258;2022-12-18T05:04:43;-6.60;99.90
46898;DHT22;32646;50.958;6.258;2022-12-18T05:07:10;-6.60;99.90
46898;DHT22;32646;50.958;6.258;2022-12-18T05:09:36;-6.60;99.90
46898;DHT22;32646;50.958;6.258;2022-12-18T05:12:03;-6.60;99.90
46898;DHT22;32646;50.958;6.258;2022-12-18T05:14:30;-6.60;99.90
46898;DHT22;32646;50.958;6.258;2022-12-18T05:16:56;-6.60;99.90
46898;DHT22;32646;50.958;6.258;2022-12-18T05:19:26;-6.60;99.90
46898;DHT22;32646;50.958;6.258;2022-12-18T05:21:53;-6.70;99.90
46898;DHT22;32646;50.958;6.258;2022-12-18T05:24:19;-6.80;99.90
46898;DHT22;32646;50.958;6.258;2022-12-18T05:26:46;-7.00;99.90
46898;DHT22;32646;50.958;6.258;2022-12-18T05:29:13;-7.10;99.90
46898;DHT22;32646;50.958;6.258;2022-12-18T05:31:39;-7.20;99.90
46898;DHT22;32646;50.958;6.258;2022-12-18T05:34:08;-7.30;99.90
46898;DHT22;32646;50.958;6.258;2022-12-18T05:36:36;-7.30;99.90
46898;DHT22;32646;50.958;6.258;2022-12-18T05:39:02;-7.30;99.90
46898;DHT22;32646;50.958;6.258;2022-12-18T05:41:29;-7.30;99.90
46898;DHT22;32646;50.958;6.258;2022-12-18T05:43:56;-7.30;99.90
46898;DHT22;32646;50.958;6.258;2022-12-18T05:46:23;-7.30;99.90
46898;DHT22;32646;50.958;6.258;2022-12-18T05:48:49;-7.20;99.90
46898;DHT22;32646;50.958;6.258;2022-12-18T05:51:18;-7.20;99.90
46898;DHT22;32646;50.958;6.258;2022-12-18T05:53:45;-7.20;99.90
46898;DHT22;32646;50.958;6.258;2022-12-18T05:56:19;-7.20;99.90
46898;DHT22;32646;50.958;6.258;2022-12-18T05:58:46;-7.30;99.90
46898;DHT22;32646;50.958;6.258;2022-12-18T06:01:20;-7.30;99.90
46898;DHT22;32646;50.958;6.258;2022-12-18T06:03:47;-7.30;99.90
46898;DHT22;32646;50.958;6.258;2022-12-18T06:06:17;-7.20;99.90
46898;DHT22;32646;50.958;6.258;2022-12-18T06:08:45;-7.10;99.90
46898;DHT22;32646;50.958;6.258;2022-12-18T06:11:13;-6.90;99.90
46898;DHT22;32646;50.958;6.258;2022-12-18T06:13:42;-6.70;99.90
46898;DHT22;32646;50.958;6.258;2022-12-18T06:16:08;-6.60;99.90
46898;DHT22;32646;50.958;6.258;2022-12-18T06:18:36;-6.40;99.90
46898;DHT22;32646;50.958;6.258;2022-12-18T06:21:03;-6.40;99.90
46898;DHT22;32646;50.958;6.258;2022-12-18T06:23:30;-6.30;99.90
46898;DHT22;32646;50.958;6.258;2022-12-18T06:25:56;-6.30;99.90
46898;DHT22;32646;50.958;6.258;2022-12-18T06:28:23;-6.40;99.90
46898;DHT22;32646;50.958;6.258;2022-12-18T06:30:49;-6.30;99.90
46898;DHT22;32646;50.958;6.258;2022-12-18T06:33:16;-6.30;99.90
46898;DHT22;32646;50.958;6.258;2022-12-18T06:35:43;-6.30;99.90
46898;DHT22;32646;50.958;6.258;2022-12-18T06:38:09;-6.30;99.90
46898;DHT22;32646;50.958;6.258;2022-12-18T06:40:37;-6.20;99.90
46898;DHT22;32646;50.958;6.258;2022-12-18T06:43:04;-6.10;99.90
46898;DHT22;32646;50.958;6.258;2022-12-18T06:45:31;-5.90;99.90
46898;DHT22;32646;50.958;6.258;2022-12-18T06:47:57;-5.90;99.90
46898;DHT22;32646;50.958;6.258;2022-12-18T06:50:24;-5.90;99.90
46898;DHT22;32646;50.958;6.258;2022-12-18T06:52:51;-5.80;99.90
46898;DHT22;32646;50.958;6.258;2022-12-18T06:55:18;-5.80;99.90
46898;DHT22;32646;50.958;6.258;2022-12-18T06:57:44;-5.80;99.90
46898;DHT22;32646;50.958;6.258;2022-12-18T07:00:11;-5.80;99.90
46898;DHT22;32646;50.958;6.258;2022-12-18T07:02:37;-5.90;99.90
46898;DHT22;32646;50.958;6.258;2022-12-18T07:05:05;-5.90;99.90
46898;DHT22;32646;50.958;6.258;2022-12-18T07:07:36;-5.90;99.90
46898;DHT22;32646;50.958;6.258;2022-12-18T07:10:03;-6.00;99.90
46898;DHT22;32646;50.958;6.258;2022-12-18T07:12:30;-6.10;99.90
46898;DHT22;32646;50.958;6.258;2022-12-18T07:14:56;-6.10;99.90
46898;DHT22;32646;50.958;6.258;2022-12-18T07:17:23;-6.20;99.90
46898;DHT22;32646;50.958;6.258;2022-12-18T07:19:49;-6.30;99.90
46898;DHT22;32646;50.958;6.258;2022-12-18T07:22:16;-6.30;99.90
46898;DHT22;32646;50.958;6.258;2022-12-18T07:24:44;-6.30;99.90
46898;DHT22;32646;50.958;6.258;2022-12-18T07:27:10;-6.30;99.90
46898;DHT22;32646;50.958;6.258;2022-12-18T07:29:37;-6.40;99.90
46898;DHT22;32646;50.958;6.258;2022-12-18T07:32:05;-6.30;99.90
46898;DHT22;32646;50.958;6.258;2022-12-18T07:34:31;-6.30;99.90
46898;DHT22;32646;50.958;6.258;2022-12-18T07:36:58;-6.30;99.90
46898;DHT22;32646;50.958;6.258;2022-12-18T07:39:25;-6.30;99.90
46898;DHT22;32646;50.958;6.258;2022-12-18T07:41:51;-6.20;99.90
46898;DHT22;32646;50.958;6.258;2022-12-18T07:44:18;-6.20;99.90
46898;DHT22;32646;50.958;6.258;2022-12-18T07:46:44;-6.20;99.90
46898;DHT22;32646;50.958;6.258;2022-12-18T07:49:11;-6.20;99.90
46898;DHT22;32646;50.958;6.258;2022-12-18T07:51:37;-6.10;99.90
46898;DHT22;32646;50.958;6.258;2022-12-18T07:54:04;-6.10;99.90
46898;DHT22;32646;50.958;6.258;2022-12-18T07:56:30;-6.10;99.90
46898;DHT22;32646;50.958;6.258;2022-12-18T07:58:58;-6.10;99.90
46898;DHT22;32646;50.958;6.258;2022-12-18T08:01:25;-6.00;99.90
46898;DHT22;32646;50.958;6.258;2022-12-18T08:03:53;-6.00;99.90
46898;DHT22;32646;50.958;6.258;2022-12-18T08:06:19;-5.90;99.90
46898;DHT22;32646;50.958;6.258;2022-12-18T08:08:51;-5.90;99.90
46898;DHT22;32646;50.958;6.258;2022-12-18T08:11:17;-5.70;99.90
46898;DHT22;32646;50.958;6.258;2022-12-18T08:13:45;-5.70;99.90
46898;DHT22;32646;50.958;6.258;2022-12-18T08:16:11;-5.60;99.90
46898;DHT22;32646;50.958;6.258;2022-12-18T08:18:38;-5.50;99.90
46898;DHT22;32646;50.958;6.258;2022-12-18T08:23:38;-5.00;99.90
46898;DHT22;32646;50.958;6.258;2022-12-18T08:26:09;-4.80;99.90
46898;DHT22;32646;50.958;6.258;2022-12-18T08:28:36;-4.70;99.90
46898;DHT22;32646;50.958;6.258;2022-12-18T08:31:03;-4.80;99.90
46898;DHT22;32646;50.958;6.258;2022-12-18T08:33:31;-4.70;99.90
46898;DHT22;32646;50.958;6.258;2022-12-18T08:36:01;-4.70;99.90
46898;DHT22;32646;50.958;6.258;2022-12-18T08:38:28;-4.70;99.90
46898;DHT22;32646;50.958;6.258;2022-12-18T08:41:06;-4.70;99.90
46898;DHT22;32646;50.958;6.258;2022-12-18T08:43:33;-4.60;99.90
46898;DHT22;32646;50.958;6.258;2022-12-18T08:45:59;-4.50;99.90
46898;DHT22;32646;50.958;6.258;2022-12-18T08:48:26;-4.40;99.90
46898;DHT22;32646;50.958;6.258;2022-12-18T08:50:57;-4.30;99.90
46898;DHT22;32646;50.958;6.258;2022-12-18T08:53:24;-4.10;99.90
46898;DHT22;32646;50.958;6.258;2022-12-18T08:55:51;-3.90;99.90
46898;DHT22;32646;50.958;6.258;2022-12-18T08:58:18;-3.80;99.90
46898;DHT22;32646;50.958;6.258;2022-12-18T09:00:45;-3.70;99.90
46898;DHT22;32646;50.958;6.258;2022-12-18T09:03:16;-3.70;99.90
46898;DHT22;32646;50.958;6.258;2022-12-18T09:05:43;-3.70;99.90
46898;DHT22;32646;50.958;6.258;2022-12-18T09:08:11;-3.70;99.90
46898;DHT22;32646;50.958;6.258;2022-12-18T09:10:46;-3.70;99.90
46898;DHT22;32646;50.958;6.258;2022-12-18T09:13:13;-3.50;99.90
46898;DHT22;32646;50.958;6.258;2022-12-18T09:15:45;-3.30;99.90
46898;DHT22;32646;50.958;6.258;2022-12-18T09:18:13;-3.20;99.90
46898;DHT22;32646;50.958;6.258;2022-12-18T09:20:40;-3.20;99.90
46898;DHT22;32646;50.958;6.258;2022-12-18T09:23:07;-3.00;99.90
46898;DHT22;32646;50.958;6.258;2022-12-18T09:25:34;-2.90;99.90
46898;DHT22;32646;50.958;6.258;2022-12-18T09:28:15;-2.90;99.90
46898;DHT22;32646;50.958;6.258;2022-12-18T09:30:44;-2.70;99.90
46898;DHT22;32646;50.958;6.258;2022-12-18T09:33:11;-2.80;99.90
46898;DHT22;32646;50.958;6.258;2022-12-18T09:35:38;-2.80;99.90
46898;DHT22;32646;50.958;6.258;2022-12-18T09:38:05;-2.80;99.90
46898;DHT22;32646;50.958;6.258;2022-12-18T09:40:44;-2.70;99.90
46898;DHT22;32646;50.958;6.258;2022-12-18T09:43:26;-2.70;99.90
46898;DHT22;32646;50.958;6.258;2022-12-18T09:45:58;-2.60;99.90
46898;DHT22;32646;50.958;6.258;2022-12-18T09:48:49;-2.60;99.90
46898;DHT22;32646;50.958;6.258;2022-12-18T09:51:23;-2.50;99.90
46898;DHT22;32646;50.958;6.258;2022-12-18T09:54:05;-2.30;99.90
46898;DHT22;32646;50.958;6.258;2022-12-18T09:56:36;-2.20;99.90
46898;DHT22;32646;50.958;6.258;2022-12-18T09:59:05;-2.10;99.90
46898;DHT22;32646;50.958;6.258;2022-12-18T10:01:32;-2.00;99.90
46898;DHT22;32646;50.958;6.258;2022-12-18T10:04:10;-2.00;99.90
46898;DHT22;32646;50.958;6.258;2022-12-18T10:06:54;-1.80;99.90
46898;DHT22;32646;50.958;6.258;2022-12-18T10:09:28;-1.80;99.90
46898;DHT22;32646;50.958;6.258;2022-12-18T10:12:00;-1.70;99.90
46898;DHT22;32646;50.958;6.258;2022-12-18T10:14:41;-1.40;99.90
46898;DHT22;32646;50.958;6.258;2022-12-18T10:27:58;-1.40;99.90
46898;DHT22;32646;50.958;6.258;2022-12-18T10:30:26;-1.30;99.90
46898;DHT22;32646;50.958;6.258;2022-12-18T10:32:53;-1.20;99.90
46898;DHT22;32646;50.958;6.258;2022-12-18T10:35:25;-1.20;99.90
46898;DHT22;32646;50.958;6.258;2022-12-18T10:43:32;-1.10;99.90
46898;DHT22;32646;50.958;6.258;2022-12-18T10:48:50;-1.00;99.90
46898;DHT22;32646;50.958;6.258;2022-12-18T10:51:25;-1.00;99.90
46898;DHT22;32646;50.958;6.258;2022-12-18T10:54:21;-0.90;99.90
46898;DHT22;32646;50.958;6.258;2022-12-18T10:56:49;-0.80;99.90
46898;DHT22;32646;50.958;6.258;2022-12-18T10:59:17;-0.70;99.90
46898;DHT22;32646;50.958;6.258;2022-12-18T11:01:54;-0.80;99.90
46898;DHT22;32646;50.958;6.258;2022-12-18T11:04:27;-0.80;99.90
46898;DHT22;32646;50.958;6.258;2022-12-18T11:07:06;-0.90;99.90
46898;DHT22;32646;50.958;6.258;2022-12-18T11:09:37;-1.00;99.90
46898;DHT22;32646;50.958;6.258;2022-12-18T11:12:15;-1.10;99.90
46898;DHT22;32646;50.958;6.258;2022-12-18T11:14:47;-1.10;99.90
46898;DHT22;32646;50.958;6.258;2022-12-18T11:17:34;-1.00;99.90
46898;DHT22;32646;50.958;6.258;2022-12-18T11:23:01;-1.00;99.90
46898;DHT22;32646;50.958;6.258;2022-12-18T11:25:30;-1.00;99.90
46898;DHT22;32646;50.958;6.258;2022-12-18T11:28:03;-1.00;99.90
46898;DHT22;32646;50.958;6.258;2022-12-18T11:30:35;-1.00;99.90
46898;DHT22;32646;50.958;6.258;2022-12-18T11:33:17;-1.00;99.90
46898;DHT22;32646;50.958;6.258;2022-12-18T11:35:55;-0.90;99.90
46898;DHT22;32646;50.958;6.258;2022-12-18T11:38:23;-1.00;99.90
46898;DHT22;32646;50.958;6.258;2022-12-18T11:43:50;-1.00;99.90
46898;DHT22;32646;50.958;6.258;2022-12-18T11:46:29;-1.00;99.90
46898;DHT22;32646;50.958;6.258;2022-12-18T11:49:03;-0.90;99.90
46898;DHT22;32646;50.958;6.258;2022-12-18T11:51:42;-0.90;99.90
46898;DHT22;32646;50.958;6.258;2022-12-18T11:54:14;-0.80;99.90
46898;DHT22;32646;50.958;6.258;2022-12-18T12:00:28;-0.60;99.90
46898;DHT22;32646;50.958;6.258;2022-12-18T12:05:33;-0.60;99.90
46898;DHT22;32646;50.958;6.258;2022-12-18T12:11:23;-0.60;99.90
46898;DHT22;32646;50.958;6.258;2022-12-18T12:14:16;-0.60;99.90
46898;DHT22;32646;50.958;6.258;2022-12-18T12:16:59;-0.60;99.90
46898;DHT22;32646;50.958;6.258;2022-12-18T12:19:43;-0.60;99.90
46898;DHT22;32646;50.958;6.258;2022-12-18T12:25:28;-0.50;99.90
46898;DHT22;32646;50.958;6.258;2022-12-18T12:33:36;-0.40;99.90
46898;DHT22;32646;50.958;6.258;2022-12-18T12:36:20;-0.30;99.90
46898;DHT22;32646;50.958;6.258;2022-12-18T12:38:56;-0.20;99.90
46898;DHT22;32646;50.958;6.258;2022-12-18T12:41:27;-0.30;99.90
46898;DHT22;32646;50.958;6.258;2022-12-18T12:43:57;-0.20;99.90
46898;DHT22;32646;50.958;6.258;2022-12-18T12:46:26;-0.20;99.90
46898;DHT22;32646;50.958;6.258;2022-12-18T12:48:56;-0.30;99.90
46898;DHT22;32646;50.958;6.258;2022-12-18T12:51:26;-0.20;99.90
46898;DHT22;32646;50.958;6.258;2022-12-18T12:53:57;-0.20;99.90
46898;DHT22;32646;50.958;6.258;2022-12-18T12:56:29;-0.20;99.90
46898;DHT22;32646;50.958;6.258;2022-12-18T12:59:26;-0.20;99.90
46898;DHT22;32646;50.958;6.258;2022-12-18T13:07:13;0.00;99.90
46898;DHT22;32646;50.958;6.258;2022-12-18T13:13:05;0.00;99.90
46898;DHT22;32646;50.958;6.258;2022-12-18T13:18:21;0.00;99.90
46898;DHT22;32646;50.958;6.258;2022-12-18T13:21:02;0.00;99.90
46898;DHT22;32646;50.958;6.258;2022-12-18T13:31:03;-0.10;99.90
46898;DHT22;32646;50.958;6.258;2022-12-18T13:33:34;-0.10;99.90
46898;DHT22;32646;50.958;6.258;2022-12-18T13:39:21;-0.20;99.90
46898;DHT22;32646;50.958;6.258;2022-12-18T13:44:37;-0.30;99.90
46898;DHT22;32646;50.958;6.258;2022-12-18T13:47:34;-0.40;99.90
46898;DHT22;32646;50.958;6.258;2022-12-18T13:50:11;-0.30;99.90
46898;DHT22;32646;50.958;6.258;2022-12-18T13:52:46;-0.30;99.90
46898;DHT22;32646;50.958;6.258;2022-12-18T13:55:18;-0.40;99.90
46898;DHT22;32646;50.958;6.258;2022-12-18T13:57:47;-0.40;99.90
46898;DHT22;32646;50.958;6.258;2022-12-18T14:02:50;-0.40;99.90
46898;DHT22;32646;50.958;6.258;2022-12-18T14:05:31;-0.50;99.90
46898;DHT22;32646;50.958;6.258;2022-12-18T14:08:03;-0.50;99.90
46898;DHT22;32646;50.958;6.258;2022-12-18T14:10:31;-0.50;99.90
46898;DHT22;32646;50.958;6.258;2022-12-18T14:13:41;-0.50;99.90
46898;DHT22;32646;50.958;6.258;2022-12-18T14:16:06;-0.50;99.90
46898;DHT22;32646;50.958;6.258;2022-12-18T14:18:41;-0.50;99.90
46898;DHT22;32646;50.958;6.258;2022-12-18T14:21:29;-0.50;99.90
46898;DHT22;32646;50.958;6.258;2022-12-18T14:24:13;-0.50;99.90
46898;DHT22;32646;50.958;6.258;2022-12-18T14:26:42;-0.50;99.90
46898;DHT22;32646;50.958;6.258;2022-12-18T14:32:13;-0.50;99.90
46898;DHT22;32646;50.958;6.258;2022-12-18T14:34:48;-0.50;99.90
46898;DHT22;32646;50.958;6.258;2022-12-18T14:37:18;-0.50;99.90
46898;DHT22;32646;50.958;6.258;2022-12-18T14:40:00;-0.60;99.90
46898;DHT22;32646;50.958;6.258;2022-12-18T14:42:36;-0.60;99.90
46898;DHT22;32646;50.958;6.258;2022-12-18T14:45:37;-0.60;99.90
46898;DHT22;32646;50.958;6.258;2022-12-18T14:51:05;-0.60;99.90
46898;DHT22;32646;50.958;6.258;2022-12-18T14:53:43;-0.60;99.90
46898;DHT22;32646;50.958;6.258;2022-12-18T14:58:53;-0.60;99.90
46898;DHT22;32646;50.958;6.258;2022-12-18T15:01:44;-0.70;99.90
46898;DHT22;32646;50.958;6.258;2022-12-18T15:04:35;-0.80;99.90
46898;DHT22;32646;50.958;6.258;2022-12-18T15:07:18;-0.80;99.90
46898;DHT22;32646;50.958;6.258;2022-12-18T15:10:12;-0.80;99.90
46898;DHT22;32646;50.958;6.258;2022-12-18T15:12:47;-0.90;99.90
46898;DHT22;32646;50.958;6.258;2022-12-18T15:18:00;-0.90;99.90
46898;DHT22;32646;50.958;6.258;2022-12-18T15:20:27;-0.90;99.90
46898;DHT22;32646;50.958;6.258;2022-12-18T15:22:54;-1.00;99.90
46898;DHT22;32646;50.958;6.258;2022-12-18T15:25:41;-1.00;99.90
46898;DHT22;32646;50.958;6.258;2022-12-18T15:28:19;-1.10;99.90
46898;DHT22;32646;50.958;6.258;2022-12-18T15:33:46;-1.20;99.90
46898;DHT22;32646;50.958;6.258;2022-12-18T15:36:26;-1.20;99.90
46898;DHT22;32646;50.958;6.258;2022-12-18T15:38:54;-1.20;99.90
46898;DHT22;32646;50.958;6.258;2022-12-18T15:41:35;-1.30;99.90
46898;DHT22;32646;50.958;6.258;2022-12-18T15:44:03;-1.30;99.90
46898;DHT22;32646;50.958;6.258;2022-12-18T15:46:30;-1.30;99.90
46898;DHT22;32646;50.958;6.258;2022-12-18T15:48:57;-1.30;99.90
46898;DHT22;32646;50.958;6.258;2022-12-18T15:51:29;-1.30;99.90
46898;DHT22;32646;50.958;6.258;2022-12-18T15:54:00;-1.30;99.90
46898;DHT22;32646;50.958;6.258;2022-12-18T15:56:27;-1.30;99.90
46898;DHT22;32646;50.958;6.258;2022-12-18T15:58:53;-1.40;99.90
46898;DHT22;32646;50.958;6.258;2022-12-18T16:01:21;-1.40;99.90
46898;DHT22;32646;50.958;6.258;2022-12-18T16:03:49;-1.40;99.90
46898;DHT22;32646;50.958;6.258;2022-12-18T16:06:16;-1.50;99.90
46898;DHT22;32646;50.958;6.258;2022-12-18T16:08:43;-1.40;99.90
46898;DHT22;32646;50.958;6.258;2022-12-18T16:11:25;-1.40;99.90
46898;DHT22;32646;50.958;6.258;2022-12-18T16:13:52;-1.40;99.90
46898;DHT22;32646;50.958;6.258;2022-12-18T16:16:18;-1.40;99.90
46898;DHT22;32646;50.958;6.258;2022-12-18T16:18:45;-1.40;99.90
46898;DHT22;32646;50.958;6.258;2022-12-18T16:21:12;-1.40;99.90
46898;DHT22;32646;50.958;6.258;2022-12-18T16:23:38;-1.50;99.90
46898;DHT22;32646;50.958;6.258;2022-12-18T16:26:05;-1.50;99.90
46898;DHT22;32646;50.958;6.258;2022-12-18T16:28:32;-1.50;99.90
46898;DHT22;32646;50.958;6.258;2022-12-18T16:30:59;-1.40;99.90
46898;DHT22;32646;50.958;6.258;2022-12-18T16:33:25;-1.40;99.90
46898;DHT22;32646;50.958;6.258;2022-12-18T16:35:53;-1.40;99.90
46898;DHT22;32646;50.958;6.258;2022-12-18T16:38:19;-1.40;99.90
46898;DHT22;32646;50.958;6.258;2022-12-18T16:40:46;-1.40;99.90
46898;DHT22;32646;50.958;6.258;2022-12-18T16:43:12;-1.40;99.90
46898;DHT22;32646;50.958;6.258;2022-12-18T16:45:39;-1.40;99.90
46898;DHT22;32646;50.958;6.258;2022-12-18T16:48:08;-1.40;99.90
46898;DHT22;32646;50.958;6.258;2022-12-18T16:50:35;-1.40;99.90
46898;DHT22;32646;50.958;6.258;2022-12-18T16:53:01;-1.40;99.90
46898;DHT22;32646;50.958;6.258;2022-12-18T16:55:28;-1.40;99.90
46898;DHT22;32646;50.958;6.258;2022-12-18T16:57:54;-1.40;99.90
46898;DHT22;32646;50.958;6.258;2022-12-18T17:00:21;-1.40;99.90
46898;DHT22;32646;50.958;6.258;2022-12-18T17:02:47;-1.40;99.90
46898;DHT22;32646;50.958;6.258;2022-12-18T17:05:14;-1.40;99.90
46898;DHT22;32646;50.958;6.258;2022-12-18T17:07:41;-1.40;99.90
46898;DHT22;32646;50.958;6.258;2022-12-18T17:10:08;-1.40;99.90
46898;DHT22;32646;50.958;6.258;2022-12-18T17:12:35;-1.40;99.90
46898;DHT22;32646;50.958;6.258;2022-12-18T17:15:02;-1.40;99.90
46898;DHT22;32646;50.958;6.258;2022-12-18T17:17:28;-1.40;99.90
46898;DHT22;32646;50.958;6.258;2022-12-18T17:19:55;-1.40;99.90
46898;DHT22;32646;50.958;6.258;2022-12-18T17:22:22;-1.40;99.90
46898;DHT22;32646;50.958;6.258;2022-12-18T17:24:48;-1.40;99.90
46898;DHT22;32646;50.958;6.258;2022-12-18T17:27:15;-1.40;99.90
46898;DHT22;32646;50.958;6.258;2022-12-18T17:29:41;-1.40;99.90
46898;DHT22;32646;50.958;6.258;2022-12-18T17:32:14;-1.40;99.90
46898;DHT22;32646;50.958;6.258;2022-12-18T17:34:41;-1.40;99.90
46898;DHT22;32646;50.958;6.258;2022-12-18T17:37:08;-1.40;99.90
46898;DHT22;32646;50.958;6.258;2022-12-18T17:39:34;-1.40;99.90
46898;DHT22;32646;50.958;6.258;2022-12-18T17:42:01;-1.40;99.90
46898;DHT22;32646;50.958;6.258;2022-12-18T17:44:28;-1.50;99.90